createdAt,value
2022-11-25T00:01:17.017Z,28.45
2022-11-25T00:04:48.837Z,27.25
2022-11-25T00:08:20.689Z,22.83
2022-11-25T00:11:52.301Z,25.73
2022-11-25T00:15:24.205Z,23.35
2022-11-25T00:18:57.036Z,25.43
2022-11-25T00:22:29.187Z,25.35
2022-11-25T00:26:07.771Z,23.73
2022-11-25T00:29:39.729Z,23.77
2022-11-25T00:33:11.472Z,23.65
2022-11-25T00:36:44.315Z,22.90
2022-11-25T00:40:16.009Z,22.80
2022-11-25T00:44:06.807Z,26.17
2022-11-25T00:47:38.467Z,25.80
2022-11-25T00:51:10.595Z,24.45
2022-11-25T00:54:44.612Z,20.73
2022-11-25T00:58:16.470Z,22.10
2022-11-25T01:01:48.294Z,22.80
2022-11-25T01:05:20.242Z,23.50
2022-11-25T01:08:52.206Z,21.08
2022-11-25T01:12:24.248Z,22.80
2022-11-25T01:15:55.863Z,22.42
2022-11-25T01:19:28.265Z,21.37
2022-11-25T01:22:59.927Z,20.92
2022-11-25T01:26:33.050Z,19.55
2022-11-25T01:30:05.347Z,18.37
2022-11-25T01:33:37.737Z,17.98
2022-11-25T01:37:09.405Z,21.15
2022-11-25T01:40:41.262Z,19.70
2022-11-25T01:44:21.890Z,19.45
2022-11-25T01:47:58.261Z,19.17
2022-11-25T01:51:40.527Z,18.38
2022-11-25T01:55:16.381Z,19.43
2022-11-25T01:58:49.398Z,19.55
2022-11-25T02:02:22.096Z,18.67
2022-11-25T02:06:08.649Z,17.67
2022-11-25T02:09:42.654Z,16.70
2022-11-25T02:13:14.505Z,17.60
2022-11-25T02:16:46.533Z,16.23
2022-11-25T02:20:22.081Z,16.77
2022-11-25T02:24:04.130Z,15.05
2022-11-25T02:27:38.410Z,15.23
2022-11-25T02:31:11.444Z,15.00
2022-11-25T02:34:49.917Z,15.73
2022-11-25T02:38:33.754Z,16.42
2022-11-25T02:42:05.935Z,15.33
2022-11-25T02:45:50.200Z,16.85
2022-11-25T02:49:21.828Z,17.70
2022-11-25T02:52:53.746Z,18.37
2022-11-25T02:56:31.278Z,17.05
2022-11-25T03:00:04.704Z,15.38
2022-11-25T03:03:37.439Z,16.30
2022-11-25T03:07:10.356Z,13.50
2022-11-25T03:10:42.756Z,15.50
2022-11-25T03:14:14.674Z,16.02
2022-11-25T03:17:47.121Z,14.00
2022-11-25T03:21:19.153Z,15.35
2022-11-25T03:24:50.698Z,15.57
2022-11-25T03:28:23.366Z,13.70
2022-11-25T03:31:55.038Z,12.70
2022-11-25T03:35:28.256Z,15.93
2022-11-25T03:38:59.822Z,15.35
2022-11-25T03:42:31.896Z,16.23
2022-11-25T03:46:03.648Z,14.80
2022-11-25T03:49:35.513Z,15.00
2022-11-25T03:53:08.096Z,15.10
2022-11-25T03:56:40.332Z,15.65
2022-11-25T04:00:14.745Z,14.05
2022-11-25T04:03:46.923Z,14.87
2022-11-25T04:07:18.560Z,14.95
2022-11-25T04:10:50.878Z,14.48
2022-11-25T04:14:23.774Z,15.15
2022-11-25T04:17:55.822Z,15.00
2022-11-25T04:21:27.486Z,17.35
2022-11-25T04:24:59.333Z,15.77
2022-11-25T04:28:31.036Z,15.00
2022-11-25T04:32:03.284Z,15.65
2022-11-25T04:35:34.955Z,15.88
2022-11-25T04:39:06.892Z,15.30
2022-11-25T04:42:39.868Z,15.95
2022-11-25T04:46:21.396Z,16.23
2022-11-25T04:49:53.261Z,14.85
2022-11-25T04:53:25.339Z,16.10
2022-11-25T04:56:56.947Z,16.92
2022-11-25T05:00:30.831Z,16.05
2022-11-25T05:04:02.602Z,15.90
2022-11-25T05:07:34.707Z,15.07
2022-11-25T05:11:06.610Z,17.17
2022-11-25T05:14:39.240Z,16.57
2022-11-25T05:18:11.151Z,16.67
2022-11-25T05:21:43.995Z,15.50
2022-11-25T05:25:17.886Z,15.45
2022-11-25T05:28:50.020Z,16.30
2022-11-25T05:32:21.676Z,17.92
2022-11-25T05:35:58.312Z,15.13
2022-11-25T05:39:30.140Z,15.27
2022-11-25T05:43:03.170Z,16.38
2022-11-25T05:46:35.580Z,14.77
2022-11-25T05:50:08.084Z,15.60
2022-11-25T05:53:39.960Z,14.90
2022-11-25T05:57:12.985Z,13.82
2022-11-25T06:00:44.548Z,15.82
2022-11-25T06:04:16.501Z,14.87
2022-11-25T06:07:48.333Z,14.43
2022-11-25T06:11:20.306Z,15.27
2022-11-25T06:14:52.228Z,14.80
2022-11-25T06:18:25.357Z,16.58
2022-11-25T06:21:56.966Z,15.05
2022-11-25T06:25:29.401Z,15.90
2022-11-25T06:29:01.001Z,14.60
2022-11-25T06:32:37.322Z,14.23
2022-11-25T06:36:18.004Z,15.88
2022-11-25T06:39:49.933Z,15.37
2022-11-25T06:43:21.929Z,14.30
2022-11-25T06:46:53.912Z,13.25
2022-11-25T06:50:25.558Z,14.97
2022-11-25T06:53:57.640Z,14.45
2022-11-25T06:57:29.404Z,14.45
2022-11-25T07:01:11.661Z,14.13
2022-11-25T07:04:45.122Z,14.60
2022-11-25T07:08:17.094Z,15.57
2022-11-25T07:11:49.276Z,14.73
2022-11-25T07:15:21.207Z,14.17
2022-11-25T07:18:53.549Z,14.20
2022-11-25T07:22:25.974Z,13.57
2022-11-25T07:26:05.506Z,14.53
2022-11-25T07:33:29.989Z,13.38
2022-11-25T07:37:01.921Z,13.83
2022-11-25T07:40:34.489Z,14.70
2022-11-25T07:44:08.678Z,13.25
2022-11-25T07:47:40.311Z,14.38
2022-11-25T07:51:24.015Z,14.87
2022-11-25T07:54:55.656Z,13.68
2022-11-25T07:58:28.296Z,16.52
2022-11-25T08:02:00.037Z,15.47
2022-11-25T08:05:33.590Z,15.02
2022-11-25T08:09:06.293Z,16.05
2022-11-25T08:12:38.288Z,14.57
2022-11-25T08:16:13.971Z,15.80
2022-11-25T08:19:46.118Z,16.67
2022-11-25T08:23:17.946Z,16.35
2022-11-25T08:26:50.927Z,14.63
2022-11-25T08:30:25.915Z,15.93
2022-11-25T08:33:59.641Z,19.00
2022-11-25T08:37:32.022Z,15.60
2022-11-25T08:41:08.622Z,16.23
2022-11-25T08:44:41.033Z,15.18
2022-11-25T08:48:13.047Z,14.40
2022-11-25T08:51:44.769Z,13.40
2022-11-25T08:55:16.961Z,15.45
2022-11-25T08:58:51.271Z,15.95
2022-11-25T09:02:24.252Z,14.33
2022-11-25T09:05:55.908Z,14.27
2022-11-25T09:09:28.065Z,12.52
2022-11-25T09:13:00.275Z,12.27
2022-11-25T09:16:33.035Z,14.52
2022-11-25T09:20:05.987Z,14.90
2022-11-25T09:23:39.269Z,15.20
2022-11-25T09:27:11.032Z,16.30
2022-11-25T09:30:42.998Z,16.52
2022-11-25T09:34:14.668Z,16.27
2022-11-25T09:37:46.792Z,17.63
2022-11-25T09:42:15.578Z,18.17
2022-11-25T09:46:38.710Z,17.98
2022-11-25T09:50:45.860Z,16.57
2022-11-25T09:54:24.015Z,18.15
2022-11-25T09:58:34.331Z,16.98
2022-11-25T10:02:28.563Z,18.00
2022-11-25T10:06:07.034Z,18.60
2022-11-25T10:09:39.075Z,17.05
2022-11-25T10:13:22.053Z,16.95
2022-11-25T10:17:13.728Z,18.37
2022-11-25T10:20:50.690Z,19.60
2022-11-25T10:24:22.470Z,20.25
2022-11-25T10:28:01.304Z,20.40
2022-11-25T10:31:36.417Z,18.67
2022-11-25T10:35:20.093Z,18.38
2022-11-25T10:39:07.729Z,17.10
2022-11-25T10:42:39.686Z,17.85
2022-11-25T10:46:43.727Z,15.60
2022-11-25T10:50:56.721Z,15.65
2022-11-25T10:54:29.313Z,14.73
2022-11-25T10:58:32.175Z,16.80
2022-11-25T11:02:19.340Z,16.48
2022-11-25T11:05:53.943Z,14.97
2022-11-25T11:09:37.034Z,15.80
2022-11-25T11:13:18.213Z,15.05
2022-11-25T11:16:55.751Z,15.67
2022-11-25T11:20:31.749Z,16.33
2022-11-25T11:24:22.689Z,16.58
2022-11-25T11:27:55.021Z,16.52
2022-11-25T11:31:37.483Z,14.80
2022-11-25T11:35:23.551Z,15.38
2022-11-25T11:39:09.217Z,14.65
2022-11-25T11:42:41.097Z,13.63
2022-11-25T11:46:33.088Z,15.95
2022-11-25T11:50:25.646Z,16.45
2022-11-25T11:54:09.326Z,19.63
2022-11-25T11:57:59.939Z,20.95
2022-11-25T12:02:04.781Z,21.80
2022-11-25T12:05:37.277Z,24.70
2022-11-25T12:09:16.065Z,24.03
2022-11-25T12:13:05.624Z,24.02
2022-11-25T12:16:47.224Z,25.13
2022-11-25T12:20:39.977Z,24.63
2022-11-25T12:24:23.469Z,23.35
2022-11-25T12:28:01.722Z,21.77
2022-11-25T12:31:51.305Z,24.50
2022-11-25T12:35:43.210Z,22.55
2022-11-25T12:39:24.164Z,22.58
2022-11-25T12:43:20.337Z,22.60
2022-11-25T12:46:56.451Z,21.47
2022-11-25T12:50:50.477Z,18.73
2022-11-25T12:54:50.709Z,19.70
2022-11-25T12:58:51.024Z,17.60
2022-11-25T13:03:00.489Z,17.75
2022-11-25T13:06:48.387Z,16.42
2022-11-25T13:10:46.013Z,17.57
2022-11-25T13:14:52.923Z,24.77
2022-11-25T13:18:28.511Z,19.33
2022-11-25T13:22:08.638Z,20.35
2022-11-25T13:25:44.659Z,19.77
2022-11-25T13:29:17.645Z,21.38
2022-11-25T13:32:49.478Z,19.83
2022-11-25T13:36:23.744Z,18.57
2022-11-25T13:40:24.039Z,19.17
2022-11-25T13:44:05.069Z,19.33
2022-11-25T13:47:41.006Z,17.53
2022-11-25T13:51:22.768Z,17.55
2022-11-25T13:54:55.956Z,19.42
2022-11-25T13:58:31.607Z,16.75
2022-11-25T14:02:29.137Z,20.17
2022-11-25T14:06:20.691Z,22.35
2022-11-25T14:10:40.358Z,19.30
2022-11-25T14:14:20.143Z,19.03
2022-11-25T14:18:17.497Z,19.42
2022-11-25T14:22:03.205Z,20.45
2022-11-25T14:25:50.509Z,21.23
2022-11-25T14:29:37.689Z,22.13
2022-11-25T14:33:15.388Z,22.38
2022-11-25T14:36:57.415Z,20.33
2022-11-25T14:40:36.466Z,20.70
2022-11-25T14:44:17.561Z,19.73
2022-11-25T14:47:49.597Z,19.63
2022-11-25T14:51:22.257Z,18.23
2022-11-25T14:54:55.810Z,16.58
2022-11-25T14:58:28.204Z,19.10
2022-11-25T15:02:00.551Z,18.73
2022-11-25T15:05:38.011Z,21.30
2022-11-25T15:09:26.551Z,20.98
2022-11-25T15:13:00.451Z,20.80
2022-11-25T15:16:36.150Z,21.13
2022-11-25T15:20:15.193Z,21.83
2022-11-25T15:23:46.982Z,19.55
2022-11-25T15:27:28.664Z,19.43
2022-11-25T15:31:02.086Z,20.55
2022-11-25T15:34:34.062Z,19.55
2022-11-25T15:38:35.685Z,25.03
2022-11-25T15:42:21.967Z,17.50
2022-11-25T15:46:00.672Z,21.17
2022-11-25T15:49:35.827Z,22.77
2022-11-25T15:53:27.621Z,16.87
2022-11-25T15:57:13.799Z,15.23
2022-11-25T16:01:06.036Z,14.63
2022-11-25T16:04:38.143Z,16.10
2022-11-25T16:08:18.914Z,19.10
2022-11-25T16:11:51.776Z,16.83
2022-11-25T16:15:49.777Z,20.17
2022-11-25T16:19:37.583Z,17.45
2022-11-25T16:23:13.082Z,16.48
2022-11-25T16:26:54.904Z,16.45
2022-11-25T16:30:28.632Z,18.83
2022-11-25T16:34:12.438Z,19.58
2022-11-25T16:41:36.894Z,15.57
2022-11-25T16:45:23.441Z,16.70
2022-11-25T16:48:55.473Z,18.38
2022-11-25T16:52:27.164Z,18.13
2022-11-25T16:55:59.512Z,22.00
2022-11-25T16:59:43.000Z,20.77
2022-11-25T17:03:14.973Z,19.67
2022-11-25T17:07:09.572Z,21.30
2022-11-25T17:10:39.469Z,23.63
2022-11-25T17:14:19.965Z,18.67
2022-11-25T17:17:52.495Z,17.07
2022-11-25T17:21:28.689Z,19.60
2022-11-25T17:25:00.716Z,17.73
2022-11-25T17:28:32.614Z,17.60
2022-11-25T17:32:05.330Z,17.23
2022-11-25T17:35:37.145Z,17.25
2022-11-25T17:39:11.754Z,19.55
2022-11-25T17:42:45.017Z,19.07
2022-11-25T17:46:18.227Z,19.30
2022-11-25T17:49:49.942Z,21.35
2022-11-25T17:53:22.073Z,19.13
2022-11-25T17:56:53.710Z,19.77
2022-11-25T18:00:26.342Z,17.60
2022-11-25T18:03:58.376Z,19.00
2022-11-25T18:07:30.326Z,19.85
2022-11-25T18:11:05.462Z,19.42
2022-11-25T18:14:38.720Z,18.67
2022-11-25T18:18:21.014Z,19.90
2022-11-25T18:21:53.763Z,17.65
2022-11-25T18:25:29.505Z,21.10
2022-11-25T18:29:02.547Z,20.10
2022-11-25T18:32:34.305Z,19.30
2022-11-25T18:36:06.993Z,18.85
2022-11-25T18:39:39.209Z,24.23
2022-11-25T18:43:17.946Z,19.63
2022-11-25T18:46:50.713Z,22.13
2022-11-25T18:50:25.777Z,18.40
2022-11-25T18:53:58.175Z,18.13
2022-11-25T18:57:31.374Z,16.55
2022-11-25T19:01:06.468Z,18.42
2022-11-25T19:04:38.641Z,19.70
2022-11-25T19:08:11.508Z,18.55
2022-11-25T19:11:46.902Z,19.00
2022-11-25T19:15:20.647Z,20.80
2022-11-25T19:18:52.988Z,23.98
2022-11-25T19:22:24.928Z,20.52
2022-11-25T19:26:03.248Z,17.67
2022-11-25T19:29:42.635Z,18.53
2022-11-25T19:33:26.790Z,19.27
2022-11-25T19:36:58.441Z,18.65
2022-11-25T19:40:36.146Z,19.60
2022-11-25T19:44:10.878Z,19.65
2022-11-25T19:47:46.529Z,20.50
2022-11-25T19:51:20.502Z,20.03
2022-11-25T19:54:52.434Z,19.17
2022-11-25T19:58:24.108Z,20.33
2022-11-25T20:01:56.016Z,18.13
2022-11-25T20:05:38.902Z,22.17
2022-11-25T20:09:12.650Z,19.45
2022-11-25T20:12:44.554Z,19.42
2022-11-25T20:16:23.902Z,20.40
2022-11-25T20:19:59.291Z,21.48
2022-11-25T20:23:43.276Z,21.35
2022-11-25T20:27:16.284Z,25.43
2022-11-25T20:30:49.856Z,20.85
2022-11-25T20:34:21.631Z,21.65
2022-11-25T20:37:54.020Z,21.45
2022-11-25T20:41:30.449Z,21.80
2022-11-25T20:45:02.477Z,22.55
2022-11-25T20:48:38.097Z,21.17
2022-11-25T20:52:43.166Z,19.97
2022-11-25T20:56:17.255Z,22.10
2022-11-25T20:59:49.176Z,20.33
2022-11-25T21:03:24.663Z,25.80
2022-11-25T21:06:56.754Z,24.92
2022-11-25T21:10:34.874Z,25.48
2022-11-25T21:14:14.222Z,23.30
2022-11-25T21:17:45.997Z,19.60
2022-11-25T21:21:24.680Z,21.83
2022-11-25T21:24:56.319Z,21.83
2022-11-25T21:28:28.324Z,21.43
2022-11-25T21:32:01.083Z,24.58
2022-11-25T21:35:35.354Z,23.02
2022-11-25T21:39:15.321Z,24.20
2022-11-25T21:42:47.201Z,23.90
2022-11-25T21:46:24.391Z,24.65
2022-11-25T21:49:57.105Z,25.15
2022-11-25T21:53:33.178Z,26.03
2022-11-25T21:57:21.376Z,28.13
2022-11-25T22:01:01.265Z,23.63
2022-11-25T22:04:33.268Z,24.07
2022-11-25T22:08:05.052Z,22.50
2022-11-25T22:11:40.965Z,22.52
2022-11-25T22:15:18.865Z,24.20
2022-11-25T22:18:50.829Z,21.23
2022-11-25T22:22:22.795Z,21.02
2022-11-25T22:25:55.696Z,21.27
2022-11-25T22:29:33.558Z,23.93
2022-11-25T22:33:05.665Z,23.85
2022-11-25T22:36:39.893Z,22.27
2022-11-25T22:40:12.964Z,22.53
2022-11-25T22:43:49.312Z,24.02
2022-11-25T22:47:28.470Z,24.58
2022-11-25T22:51:01.110Z,24.37
2022-11-25T22:54:33.035Z,22.13
2022-11-25T22:58:04.745Z,23.77
2022-11-25T23:01:36.685Z,20.95
2022-11-25T23:05:32.177Z,20.47
2022-11-25T23:09:13.409Z,20.20
2022-11-25T23:12:46.393Z,21.75
2022-11-25T23:16:18.431Z,20.37
2022-11-25T23:19:51.261Z,19.25
2022-11-25T23:23:26.941Z,21.00
2022-11-25T23:26:58.663Z,21.40
2022-11-25T23:30:31.124Z,23.25
2022-11-25T23:34:05.949Z,25.42
2022-11-25T23:37:38.020Z,24.27
2022-11-25T23:41:26.821Z,21.80
2022-11-25T23:44:58.662Z,21.73
2022-11-25T23:48:30.902Z,20.63
2022-11-25T23:52:08.081Z,22.23
2022-11-25T23:55:39.958Z,21.48
2022-11-25T23:59:13.901Z,19.88
